createdAt,value
2017-09-21T00:00:25.685Z,6.30
2017-09-21T00:01:22.989Z,6.40
2017-09-21T00:02:20.229Z,6.30
2017-09-21T00:03:17.502Z,7.40
2017-09-21T00:04:14.797Z,7.20
2017-09-21T00:05:12.084Z,7.50
2017-09-21T00:06:09.354Z,7.00
2017-09-21T00:07:06.646Z,7.20
2017-09-21T00:08:03.938Z,7.20
2017-09-21T00:09:01.209Z,6.50
2017-09-21T00:09:58.613Z,6.50
2017-09-21T00:10:55.881Z,5.70
2017-09-21T00:11:53.118Z,6.60
2017-09-21T00:12:50.452Z,7.20
2017-09-21T00:13:47.695Z,7.00
2017-09-21T00:14:44.959Z,6.30
2017-09-21T00:15:42.235Z,6.60
2017-09-21T00:16:39.515Z,6.00
2017-09-21T00:17:36.769Z,7.50
2017-09-21T00:18:34.046Z,8.10
2017-09-21T00:19:31.274Z,7.00
2017-09-21T00:20:28.601Z,6.40
2017-09-21T00:21:25.869Z,6.50
2017-09-21T00:22:23.187Z,6.30
2017-09-21T00:23:20.437Z,7.10
2017-09-21T00:24:17.718Z,7.70
2017-09-21T00:25:14.981Z,5.90
2017-09-21T00:26:12.278Z,6.70
2017-09-21T00:27:09.643Z,6.60
2017-09-21T00:28:07.029Z,6.80
2017-09-21T00:29:04.247Z,7.40
2017-09-21T00:30:01.506Z,5.50
2017-09-21T00:30:58.731Z,6.60
2017-09-21T00:31:55.985Z,6.50
2017-09-21T00:32:53.239Z,6.50
2017-09-21T00:33:50.507Z,7.10
2017-09-21T00:34:47.753Z,5.90
2017-09-21T00:35:45.024Z,6.40
2017-09-21T00:36:42.242Z,6.70
2017-09-21T00:37:39.501Z,6.30
2017-09-21T00:38:36.759Z,7.30
2017-09-21T00:39:34.004Z,6.30
2017-09-21T00:40:31.218Z,6.70
2017-09-21T00:41:28.492Z,6.60
2017-09-21T00:42:25.725Z,6.60
2017-09-21T00:43:23.032Z,7.00
2017-09-21T00:44:20.297Z,7.20
2017-09-21T00:45:17.562Z,6.30
2017-09-21T00:46:14.821Z,6.40
2017-09-21T00:47:12.098Z,6.50
2017-09-21T00:48:09.353Z,5.90
2017-09-21T00:49:06.631Z,15.00
2017-09-21T00:50:03.885Z,6.50
2017-09-21T00:51:01.200Z,6.80
2017-09-21T00:51:58.454Z,6.50
2017-09-21T00:52:55.737Z,7.20
2017-09-21T00:53:52.989Z,7.10
2017-09-21T00:54:50.253Z,6.60
2017-09-21T00:55:47.490Z,6.10
2017-09-21T00:56:44.766Z,6.30
2017-09-21T00:57:42.037Z,6.90
2017-09-21T00:58:39.321Z,7.00
2017-09-21T00:59:36.571Z,6.90
2017-09-21T01:00:33.849Z,6.50
2017-09-21T01:01:31.094Z,6.50
2017-09-21T01:02:28.378Z,6.80
2017-09-21T01:03:25.656Z,7.30
2017-09-21T01:04:22.948Z,6.90
2017-09-21T01:05:20.397Z,6.00
2017-09-21T01:06:17.698Z,7.30
2017-09-21T01:07:14.939Z,6.60
2017-09-21T01:08:12.220Z,9.70
2017-09-21T01:09:09.485Z,5.90
2017-09-21T01:10:06.761Z,6.70
2017-09-21T01:11:03.995Z,6.40
2017-09-21T01:12:01.282Z,6.00
2017-09-21T01:12:58.524Z,6.80
2017-09-21T01:13:55.824Z,9.20
2017-09-21T01:14:53.091Z,6.60
2017-09-21T01:15:50.373Z,6.90
2017-09-21T01:16:47.617Z,6.90
2017-09-21T01:17:44.919Z,7.10
2017-09-21T01:18:42.202Z,7.70
2017-09-21T01:19:39.524Z,7.70
2017-09-21T01:20:36.765Z,10.30
2017-09-21T01:21:34.049Z,6.20
2017-09-21T01:22:31.329Z,8.10
2017-09-21T01:23:28.642Z,7.20
2017-09-21T01:24:25.906Z,7.10
2017-09-21T01:25:23.179Z,7.80
2017-09-21T01:26:20.441Z,7.50
2017-09-21T01:27:17.717Z,6.50
2017-09-21T01:28:15.006Z,6.40
2017-09-21T01:29:12.289Z,6.60
2017-09-21T01:30:09.538Z,6.60
2017-09-21T01:31:06.832Z,6.90
2017-09-21T01:32:04.181Z,7.90
2017-09-21T01:33:01.568Z,6.60
2017-09-21T01:33:58.814Z,7.10
2017-09-21T01:34:56.127Z,10.50
2017-09-21T01:35:53.373Z,6.90
2017-09-21T01:36:50.793Z,6.80
2017-09-21T01:37:48.059Z,5.90
2017-09-21T01:38:45.346Z,6.60
2017-09-21T01:39:42.653Z,11.80
2017-09-21T01:40:39.928Z,6.70
2017-09-21T01:41:37.214Z,9.80
2017-09-21T01:42:34.529Z,7.40
2017-09-21T01:43:31.781Z,6.70
2017-09-21T01:44:29.066Z,7.00
2017-09-21T01:45:26.355Z,7.00
2017-09-21T01:46:23.623Z,9.40
2017-09-21T01:47:20.883Z,6.80
2017-09-21T01:48:18.138Z,8.10
2017-09-21T01:49:15.461Z,6.40
2017-09-21T01:50:12.872Z,7.10
2017-09-21T01:51:10.123Z,6.80
2017-09-21T01:52:07.435Z,7.50
2017-09-21T01:53:04.674Z,8.40
2017-09-21T01:54:01.986Z,7.30
2017-09-21T01:54:59.302Z,7.10
2017-09-21T01:55:56.571Z,7.70
2017-09-21T01:56:53.856Z,7.00
2017-09-21T01:57:51.139Z,9.30
2017-09-21T01:58:48.433Z,8.00
2017-09-21T01:59:45.698Z,7.80
2017-09-21T02:00:42.936Z,7.10
2017-09-21T02:01:40.241Z,6.30
2017-09-21T02:02:37.486Z,7.20
2017-09-21T02:03:34.762Z,7.30
2017-09-21T02:04:34.053Z,8.50
2017-09-21T02:05:31.341Z,7.30
2017-09-21T02:06:28.581Z,6.80
2017-09-21T02:07:25.844Z,7.10
2017-09-21T02:08:23.075Z,6.80
2017-09-21T02:09:20.328Z,6.40
2017-09-21T02:10:19.649Z,6.60
2017-09-21T02:11:16.874Z,7.00
2017-09-21T02:12:14.138Z,6.50
2017-09-21T02:13:11.392Z,8.30
2017-09-21T02:14:08.638Z,6.80
2017-09-21T02:15:05.885Z,7.50
2017-09-21T02:16:03.165Z,7.00
2017-09-21T02:17:00.425Z,8.10
2017-09-21T02:18:02.861Z,9.70
2017-09-21T02:19:00.121Z,6.50
2017-09-21T02:19:57.354Z,6.60
2017-09-21T02:20:54.645Z,7.10
2017-09-21T02:21:51.885Z,6.40
2017-09-21T02:22:49.165Z,5.90
2017-09-21T02:23:46.419Z,6.70
2017-09-21T02:24:43.698Z,6.40
2017-09-21T02:25:40.966Z,6.40
2017-09-21T02:26:38.238Z,7.20
2017-09-21T02:27:35.492Z,6.00
2017-09-21T02:28:32.758Z,6.80
2017-09-21T02:29:30.005Z,8.50
2017-09-21T02:30:27.290Z,8.70
2017-09-21T02:31:24.556Z,6.10
2017-09-21T02:32:21.826Z,6.60
2017-09-21T02:33:19.084Z,6.40
2017-09-21T02:34:16.349Z,6.70
2017-09-21T02:35:13.585Z,7.60
2017-09-21T02:36:10.850Z,8.10
2017-09-21T02:37:08.097Z,6.50
2017-09-21T02:38:05.379Z,6.30
2017-09-21T02:39:02.615Z,7.00
2017-09-21T02:39:59.892Z,6.20
2017-09-21T02:40:57.152Z,6.60
2017-09-21T02:41:54.405Z,6.50
2017-09-21T02:42:51.635Z,6.30
2017-09-21T02:43:50.937Z,6.90
2017-09-21T02:44:50.231Z,6.00
2017-09-21T02:45:47.505Z,5.90
2017-09-21T02:46:44.770Z,25.30
2017-09-21T02:47:44.077Z,5.80
2017-09-21T02:48:41.326Z,5.70
2017-09-21T02:49:38.580Z,6.00
2017-09-21T02:50:35.887Z,5.80
2017-09-21T02:51:33.161Z,6.20
2017-09-21T02:52:30.394Z,6.20
2017-09-21T02:53:27.635Z,6.40
2017-09-21T02:54:24.862Z,6.00
2017-09-21T02:55:22.131Z,6.20
2017-09-21T02:56:19.408Z,5.80
2017-09-21T02:57:16.676Z,6.20
2017-09-21T02:58:13.918Z,6.00
2017-09-21T02:59:11.181Z,6.20
2017-09-21T03:00:08.407Z,5.70
2017-09-21T03:01:05.679Z,6.20
2017-09-21T03:02:02.937Z,6.90
2017-09-21T03:03:00.207Z,6.00
2017-09-21T03:03:57.433Z,5.60
2017-09-21T03:04:54.695Z,6.10
2017-09-21T03:05:51.933Z,5.80
2017-09-21T03:06:49.231Z,6.40
2017-09-21T03:07:46.445Z,5.70
2017-09-21T03:08:43.689Z,6.20
2017-09-21T03:09:40.945Z,5.80
2017-09-21T03:10:38.184Z,6.40
2017-09-21T03:11:35.694Z,5.80
2017-09-21T03:12:32.935Z,6.50
2017-09-21T03:13:30.174Z,6.70
2017-09-21T03:14:27.421Z,6.10
2017-09-21T03:15:24.665Z,6.20
2017-09-21T03:16:21.929Z,5.70
2017-09-21T03:17:19.195Z,6.60
2017-09-21T03:18:16.457Z,5.80
2017-09-21T03:19:13.691Z,5.60
2017-09-21T03:20:10.941Z,6.50
2017-09-21T03:21:08.173Z,6.40
2017-09-21T03:22:05.452Z,6.50
2017-09-21T03:23:02.678Z,6.50
2017-09-21T03:23:59.940Z,5.80
2017-09-21T03:24:57.182Z,5.90
2017-09-21T03:25:54.445Z,6.90
2017-09-21T03:26:51.699Z,7.30
2017-09-21T03:27:48.986Z,6.80
2017-09-21T03:28:46.212Z,6.80
2017-09-21T03:29:43.470Z,6.60
2017-09-21T03:30:40.698Z,7.50
2017-09-21T03:31:37.961Z,7.50
2017-09-21T03:32:35.210Z,7.70
2017-09-21T03:33:32.451Z,7.30
2017-09-21T03:34:29.721Z,7.10
2017-09-21T03:35:26.970Z,7.10
2017-09-21T03:36:24.201Z,7.30
2017-09-21T03:37:21.491Z,7.10
2017-09-21T03:38:18.777Z,5.90
2017-09-21T03:39:16.044Z,7.40
2017-09-21T03:40:13.286Z,7.40
2017-09-21T03:41:10.814Z,6.60
2017-09-21T03:42:08.724Z,6.90
2017-09-21T03:43:05.991Z,6.70
2017-09-21T03:44:03.235Z,6.10
2017-09-21T03:45:00.489Z,6.40
2017-09-21T03:45:57.860Z,6.80
2017-09-21T03:46:55.166Z,6.00
2017-09-21T03:47:52.657Z,6.40
2017-09-21T03:48:49.955Z,6.70
2017-09-21T03:49:47.238Z,7.20
2017-09-21T03:50:44.514Z,7.00
2017-09-21T03:51:41.784Z,6.20
2017-09-21T03:52:39.101Z,7.60
2017-09-21T03:53:36.337Z,7.60
2017-09-21T03:54:33.600Z,11.20
2017-09-21T03:55:30.876Z,7.00
2017-09-21T03:56:28.165Z,7.90
2017-09-21T03:57:25.435Z,7.80
2017-09-21T03:58:22.722Z,7.00
2017-09-21T03:59:19.963Z,8.90
2017-09-21T04:00:17.213Z,7.70
2017-09-21T04:01:14.447Z,7.60
2017-09-21T04:02:11.785Z,6.70
2017-09-21T04:03:09.066Z,7.30
2017-09-21T04:04:06.332Z,7.70
2017-09-21T04:05:03.546Z,7.60
2017-09-21T04:06:00.847Z,7.90
2017-09-21T04:06:58.081Z,7.50
2017-09-21T04:07:55.369Z,8.40
2017-09-21T04:08:52.612Z,8.50
2017-09-21T04:09:49.875Z,9.20
2017-09-21T04:10:47.108Z,8.20
2017-09-21T04:11:44.372Z,8.40
2017-09-21T04:12:41.630Z,7.70
2017-09-21T04:13:38.893Z,7.10
2017-09-21T04:14:36.194Z,7.20
2017-09-21T04:15:33.487Z,11.20
2017-09-21T04:16:30.750Z,7.30
2017-09-21T04:17:28.149Z,8.70
2017-09-21T04:18:25.568Z,7.40
2017-09-21T04:19:22.926Z,7.20
2017-09-21T04:20:20.263Z,7.60
2017-09-21T04:21:17.618Z,7.90
2017-09-21T04:22:14.949Z,6.80
2017-09-21T04:23:12.297Z,7.80
2017-09-21T04:24:09.578Z,7.80
2017-09-21T04:25:06.926Z,7.50
2017-09-21T04:26:06.306Z,8.00
2017-09-21T04:27:03.638Z,8.10
2017-09-21T04:28:00.927Z,8.10
2017-09-21T04:28:58.206Z,6.80
2017-09-21T04:29:55.543Z,6.40
2017-09-21T04:30:52.857Z,7.20
2017-09-21T04:31:50.126Z,7.30
2017-09-21T04:32:47.394Z,8.30
2017-09-21T04:33:44.656Z,6.80
2017-09-21T04:34:41.917Z,7.30
2017-09-21T04:35:39.151Z,6.80
2017-09-21T04:36:36.420Z,6.60
2017-09-21T04:37:33.662Z,7.20
2017-09-21T04:38:32.994Z,7.00
2017-09-21T04:39:30.217Z,6.60
2017-09-21T04:40:27.477Z,7.60
2017-09-21T04:41:24.802Z,8.50
2017-09-21T04:42:22.062Z,7.70
2017-09-21T04:43:19.329Z,8.00
2017-09-21T04:44:16.597Z,9.00
2017-09-21T04:45:13.864Z,9.90
2017-09-21T04:46:13.298Z,7.30
2017-09-21T04:47:10.540Z,8.10
2017-09-21T04:48:07.778Z,8.50
2017-09-21T04:49:05.038Z,8.10
2017-09-21T04:50:02.301Z,10.20
2017-09-21T04:50:59.563Z,8.40
2017-09-21T04:51:56.834Z,9.20
2017-09-21T04:52:54.089Z,8.00
2017-09-21T04:53:51.349Z,8.70
2017-09-21T04:54:48.603Z,8.80
2017-09-21T04:55:45.870Z,8.40
2017-09-21T04:56:43.126Z,13.90
2017-09-21T04:57:40.399Z,7.50
2017-09-21T04:58:37.648Z,8.30
2017-09-21T04:59:34.969Z,9.00
2017-09-21T05:00:32.212Z,9.50
2017-09-21T05:01:29.475Z,8.60
2017-09-21T05:02:26.716Z,9.20
2017-09-21T05:03:23.994Z,11.70
2017-09-21T05:04:23.339Z,8.80
2017-09-21T05:05:20.593Z,7.80
2017-09-21T05:06:17.821Z,9.00
2017-09-21T05:07:15.081Z,9.80
2017-09-21T05:08:12.314Z,8.60
2017-09-21T05:09:11.614Z,8.20
2017-09-21T05:10:08.899Z,8.20
2017-09-21T05:11:06.361Z,8.20
2017-09-21T05:12:03.581Z,8.20
2017-09-21T05:13:00.854Z,7.90
2017-09-21T05:13:58.119Z,7.60
2017-09-21T05:14:55.419Z,7.30
2017-09-21T05:15:52.667Z,7.90
2017-09-21T05:16:49.946Z,9.50
2017-09-21T05:17:47.191Z,7.70
2017-09-21T05:18:44.453Z,8.10
2017-09-21T05:19:41.714Z,7.70
2017-09-21T05:20:38.979Z,8.00
2017-09-21T05:21:36.201Z,8.00
2017-09-21T05:22:33.454Z,8.40
2017-09-21T05:23:30.695Z,8.70
2017-09-21T05:24:27.956Z,8.80
2017-09-21T05:25:25.232Z,11.40
2017-09-21T05:26:22.524Z,7.00
2017-09-21T05:27:19.738Z,7.90
2017-09-21T05:28:17.011Z,10.10
2017-09-21T05:29:14.224Z,8.60
2017-09-21T05:30:11.494Z,9.50
2017-09-21T05:31:08.722Z,8.80
2017-09-21T05:32:08.023Z,8.90
2017-09-21T05:33:05.253Z,8.40
2017-09-21T05:34:02.557Z,7.90
2017-09-21T05:34:59.862Z,9.10
2017-09-21T05:35:57.351Z,8.20
2017-09-21T05:36:54.575Z,8.10
2017-09-21T05:37:51.843Z,9.40
2017-09-21T05:38:49.067Z,8.60
2017-09-21T05:39:46.330Z,9.50
2017-09-21T05:40:43.584Z,8.40
2017-09-21T05:41:40.858Z,9.50
2017-09-21T05:42:38.111Z,8.40
2017-09-21T05:43:35.386Z,8.50
2017-09-21T05:44:32.610Z,9.30
2017-09-21T05:45:29.889Z,8.80
2017-09-21T05:46:27.149Z,9.30
2017-09-21T05:47:24.407Z,8.10
2017-09-21T05:48:21.656Z,8.70
2017-09-21T05:49:18.934Z,9.20
2017-09-21T05:50:16.174Z,9.60
2017-09-21T05:51:13.450Z,7.80
2017-09-21T05:52:12.746Z,8.20
2017-09-21T05:53:09.980Z,19.60
2017-09-21T05:54:07.271Z,16.00
2017-09-21T05:55:04.489Z,17.20
2017-09-21T05:56:01.750Z,15.90
2017-09-21T05:56:59.008Z,16.00
2017-09-21T05:57:56.279Z,8.60
2017-09-21T05:58:53.544Z,10.40
2017-09-21T05:59:50.809Z,20.40
2017-09-21T06:00:48.058Z,20.10
2017-09-21T06:01:45.326Z,19.90
2017-09-21T06:02:42.560Z,19.80
2017-09-21T06:03:39.813Z,19.00
2017-09-21T06:04:37.067Z,17.70
2017-09-21T06:05:34.358Z,19.70
2017-09-21T06:06:31.612Z,20.70
2017-09-21T06:07:28.857Z,20.60
2017-09-21T06:08:26.111Z,20.90
2017-09-21T06:09:23.382Z,9.90
2017-09-21T06:10:20.593Z,10.40
2017-09-21T06:11:17.878Z,9.40
2017-09-21T06:12:15.097Z,10.90
2017-09-21T06:13:12.374Z,10.60
2017-09-21T06:14:09.597Z,9.90
2017-09-21T06:15:06.853Z,11.10
2017-09-21T06:16:04.104Z,10.40
2017-09-21T06:17:01.386Z,11.40
2017-09-21T06:17:58.641Z,13.30
2017-09-21T06:18:55.932Z,13.20
2017-09-21T06:19:53.174Z,11.10
2017-09-21T06:20:50.446Z,13.40
2017-09-21T06:21:47.713Z,12.70
2017-09-21T06:22:44.941Z,11.30
2017-09-21T06:23:42.190Z,11.90
2017-09-21T06:24:39.451Z,12.10
2017-09-21T06:25:36.676Z,10.90
2017-09-21T06:26:33.970Z,12.30
2017-09-21T06:27:31.242Z,15.70
2017-09-21T06:28:28.497Z,13.20
2017-09-21T06:29:25.714Z,12.40
2017-09-21T06:30:22.966Z,12.30
2017-09-21T06:31:20.205Z,11.80
2017-09-21T06:32:17.501Z,12.00
2017-09-21T06:33:14.791Z,12.00
2017-09-21T06:34:12.038Z,11.10
2017-09-21T06:35:09.303Z,11.20
2017-09-21T06:36:06.574Z,11.30
2017-09-21T06:37:03.831Z,12.60
2017-09-21T06:38:01.098Z,12.10
2017-09-21T06:38:58.330Z,11.50
2017-09-21T06:39:55.577Z,9.80
2017-09-21T06:40:52.796Z,11.70
2017-09-21T06:41:50.046Z,12.00
2017-09-21T06:42:47.340Z,10.90
2017-09-21T06:43:44.705Z,12.70
2017-09-21T06:44:41.952Z,11.60
2017-09-21T06:45:39.239Z,13.30
2017-09-21T06:46:36.482Z,11.90
2017-09-21T06:47:33.738Z,11.80
2017-09-21T06:48:31.001Z,13.40
2017-09-21T06:49:28.287Z,13.60
2017-09-21T06:50:25.554Z,13.30
2017-09-21T06:51:22.827Z,12.70
2017-09-21T06:52:20.093Z,12.90
2017-09-21T06:53:17.480Z,14.20
2017-09-21T06:54:14.738Z,13.00
2017-09-21T06:55:12.001Z,12.50
2017-09-21T06:56:09.250Z,13.80
2017-09-21T06:57:06.541Z,13.00
2017-09-21T06:58:03.773Z,12.50
2017-09-21T06:59:01.081Z,13.20
2017-09-21T06:59:58.313Z,13.00
2017-09-21T07:00:55.565Z,14.70
2017-09-21T07:01:52.805Z,15.40
2017-09-21T07:02:50.075Z,13.20
2017-09-21T07:03:47.322Z,13.70
2017-09-21T07:04:44.622Z,13.20
2017-09-21T07:05:41.973Z,13.50
2017-09-21T07:06:39.229Z,13.70
2017-09-21T07:07:36.447Z,14.20
2017-09-21T07:08:33.757Z,12.80
2017-09-21T07:09:30.977Z,14.20
2017-09-21T07:10:28.270Z,14.50
2017-09-21T07:11:25.517Z,13.90
2017-09-21T07:12:22.769Z,14.00
2017-09-21T07:13:20.034Z,12.80
2017-09-21T07:14:17.326Z,14.90
2017-09-21T07:15:14.586Z,14.60
2017-09-21T07:16:11.863Z,14.90
2017-09-21T07:17:09.130Z,13.10
2017-09-21T07:18:06.400Z,18.60
2017-09-21T07:19:03.656Z,15.00
2017-09-21T07:20:01.054Z,13.30
2017-09-21T07:20:58.313Z,13.40
2017-09-21T07:21:55.578Z,14.40
2017-09-21T07:22:52.822Z,15.70
2017-09-21T07:23:50.090Z,15.00
2017-09-21T07:24:47.350Z,13.40
2017-09-21T07:25:44.741Z,13.50
2017-09-21T07:26:41.997Z,14.30
2017-09-21T07:27:39.261Z,14.40
2017-09-21T07:28:36.503Z,15.70
2017-09-21T07:29:33.769Z,18.60
2017-09-21T07:30:31.033Z,14.90
2017-09-21T07:31:28.281Z,16.40
2017-09-21T07:32:25.603Z,16.00
2017-09-21T07:33:22.955Z,14.20
2017-09-21T07:34:22.265Z,16.40
2017-09-21T07:35:19.531Z,20.40
2017-09-21T07:36:16.806Z,14.60
2017-09-21T07:37:14.069Z,14.00
2017-09-21T07:38:11.352Z,12.80
2017-09-21T07:39:08.596Z,15.90
2017-09-21T07:40:05.843Z,14.80
2017-09-21T07:41:05.186Z,15.20
2017-09-21T07:42:02.451Z,14.40
2017-09-21T07:42:59.712Z,13.40
2017-09-21T07:43:56.965Z,14.10
2017-09-21T07:44:54.231Z,14.40
2017-09-21T07:45:51.514Z,15.10
2017-09-21T07:46:48.795Z,15.60
2017-09-21T07:47:46.034Z,15.00
2017-09-21T07:48:43.299Z,13.30
2017-09-21T07:49:40.651Z,13.20
2017-09-21T07:50:37.994Z,14.70
2017-09-21T07:51:35.340Z,13.00
2017-09-21T07:52:32.685Z,14.10
2017-09-21T07:53:30.023Z,17.30
2017-09-21T07:54:27.421Z,18.10
2017-09-21T07:55:24.677Z,14.50
2017-09-21T07:56:21.950Z,14.90
2017-09-21T07:57:19.213Z,13.40
2017-09-21T07:58:16.520Z,14.40
2017-09-21T07:59:13.855Z,15.20
2017-09-21T08:00:11.162Z,15.20
2017-09-21T08:01:08.772Z,15.20
2017-09-21T08:02:06.694Z,12.50
2017-09-21T08:03:04.234Z,14.70
2017-09-21T08:04:01.491Z,14.20
2017-09-21T08:04:58.711Z,13.40
2017-09-21T08:05:55.981Z,15.40
2017-09-21T08:06:53.249Z,12.80
2017-09-21T08:07:50.507Z,14.80
2017-09-21T08:08:47.754Z,14.00
2017-09-21T08:09:45.039Z,13.70
2017-09-21T08:10:42.282Z,15.10
2017-09-21T08:11:39.562Z,15.30
2017-09-21T08:12:36.833Z,15.90
2017-09-21T08:13:34.083Z,13.90
2017-09-21T08:14:31.343Z,13.90
2017-09-21T08:15:28.710Z,13.50
2017-09-21T08:16:25.968Z,14.80
2017-09-21T08:17:23.255Z,14.50
2017-09-21T08:18:20.510Z,13.70
2017-09-21T08:19:17.761Z,15.10
2017-09-21T08:20:14.982Z,17.50
2017-09-21T08:21:12.244Z,19.90
2017-09-21T08:22:09.594Z,14.70
2017-09-21T08:23:06.839Z,15.00
2017-09-21T08:24:04.049Z,16.70
2017-09-21T08:25:01.319Z,17.30
2017-09-21T08:25:58.545Z,14.10
2017-09-21T08:26:55.890Z,17.90
2017-09-21T08:27:53.180Z,15.20
2017-09-21T08:28:50.426Z,14.20
2017-09-21T08:29:47.660Z,15.90
2017-09-21T08:30:44.913Z,16.50
2017-09-21T08:31:42.167Z,15.40
2017-09-21T08:32:39.470Z,31.70
2017-09-21T08:33:36.694Z,17.20
2017-09-21T08:34:33.997Z,14.90
2017-09-21T08:35:31.245Z,17.30
2017-09-21T08:36:28.506Z,15.00
2017-09-21T08:37:25.769Z,16.40
2017-09-21T08:38:23.013Z,16.50
2017-09-21T08:39:20.230Z,15.20
2017-09-21T08:40:17.651Z,15.00
2017-09-21T08:41:14.925Z,16.20
2017-09-21T08:42:12.221Z,16.00
2017-09-21T08:43:09.467Z,17.30
2017-09-21T08:44:06.750Z,16.60
2017-09-21T08:45:03.993Z,18.10
2017-09-21T08:46:01.264Z,16.70
2017-09-21T08:46:58.489Z,18.50
2017-09-21T08:47:55.780Z,17.50
2017-09-21T08:48:53.073Z,16.20
2017-09-21T08:49:50.381Z,16.40
2017-09-21T08:50:47.629Z,20.60
2017-09-21T08:51:44.878Z,16.20
2017-09-21T08:52:42.149Z,16.60
2017-09-21T08:53:39.426Z,20.60
2017-09-21T08:54:36.676Z,20.20
2017-09-21T08:55:33.957Z,21.10
2017-09-21T08:56:31.231Z,19.90
2017-09-21T08:57:28.538Z,20.30
2017-09-21T08:58:25.794Z,21.60
2017-09-21T08:59:23.055Z,17.80
2017-09-21T09:00:20.286Z,22.30
2017-09-21T09:01:17.545Z,22.00
2017-09-21T09:02:14.782Z,23.30
2017-09-21T09:03:12.059Z,18.90
2017-09-21T09:04:09.322Z,24.80
2017-09-21T09:05:06.595Z,22.10
2017-09-21T09:06:03.864Z,19.10
2017-09-21T09:07:01.138Z,27.60
2017-09-21T09:07:58.382Z,24.30
2017-09-21T09:08:57.703Z,20.80
2017-09-21T09:09:54.906Z,22.80
2017-09-21T09:10:52.217Z,24.60
2017-09-21T09:11:49.495Z,23.30
2017-09-21T09:12:46.938Z,21.30
2017-09-21T09:13:44.876Z,20.00
2017-09-21T09:14:42.159Z,23.60
2017-09-21T09:15:39.408Z,18.90
2017-09-21T09:16:36.661Z,26.20
2017-09-21T09:17:33.887Z,26.40
2017-09-21T09:18:31.306Z,20.80
2017-09-21T09:19:28.553Z,26.00
2017-09-21T09:20:25.813Z,24.00
2017-09-21T09:21:23.048Z,21.70
2017-09-21T09:22:20.309Z,26.50
2017-09-21T09:23:17.602Z,21.80
2017-09-21T09:24:14.879Z,21.20
2017-09-21T09:25:12.118Z,24.20
2017-09-21T09:26:09.383Z,26.70
2017-09-21T09:27:06.624Z,22.60
2017-09-21T09:28:03.883Z,22.00
2017-09-21T09:29:01.169Z,21.90
2017-09-21T09:29:58.500Z,27.50
2017-09-21T09:30:55.774Z,27.90
2017-09-21T09:31:53.017Z,32.60
2017-09-21T09:32:50.258Z,34.10
2017-09-21T09:33:47.530Z,48.40
2017-09-21T09:34:44.749Z,44.60
2017-09-21T09:35:42.010Z,30.50
2017-09-21T09:36:39.231Z,51.00
2017-09-21T09:37:36.489Z,25.30
2017-09-21T09:38:33.751Z,32.30
2017-09-21T09:39:31.015Z,27.40
2017-09-21T09:40:28.271Z,23.70
2017-09-21T09:41:25.730Z,27.20
2017-09-21T09:42:22.964Z,25.70
2017-09-21T09:43:20.235Z,26.70
2017-09-21T09:44:17.486Z,24.60
2017-09-21T09:45:14.758Z,31.90
2017-09-21T09:46:11.998Z,27.00
2017-09-21T09:47:09.254Z,24.70
2017-09-21T09:48:06.496Z,25.00
2017-09-21T09:49:03.781Z,22.70
2017-09-21T09:50:01.014Z,21.30
2017-09-21T09:50:58.272Z,21.00
2017-09-21T09:51:55.487Z,23.20
2017-09-21T09:52:52.737Z,24.00
2017-09-21T09:53:50.010Z,22.90
2017-09-21T09:54:47.310Z,26.80
2017-09-21T09:55:44.610Z,25.40
2017-09-21T09:56:41.870Z,21.00
2017-09-21T09:57:39.110Z,25.50
2017-09-21T09:58:36.353Z,26.20
2017-09-21T09:59:33.598Z,21.50
2017-09-21T10:00:30.862Z,26.70
2017-09-21T10:01:28.078Z,20.60
2017-09-21T10:02:25.362Z,24.60
2017-09-21T10:03:24.764Z,22.60
2017-09-21T10:04:22.037Z,25.80
2017-09-21T10:05:19.323Z,25.80
2017-09-21T10:06:16.565Z,31.90
2017-09-21T10:07:13.864Z,35.80
2017-09-21T10:08:11.118Z,25.90
2017-09-21T10:09:08.381Z,22.20
2017-09-21T10:10:05.630Z,21.30
2017-09-21T10:11:02.901Z,21.00
2017-09-21T10:12:00.151Z,25.80
2017-09-21T10:12:57.423Z,25.50
2017-09-21T10:13:54.712Z,31.50
2017-09-21T10:14:52.094Z,24.30
2017-09-21T10:15:49.369Z,20.60
2017-09-21T10:16:46.744Z,21.20
2017-09-21T10:17:43.970Z,24.60
2017-09-21T10:18:41.257Z,28.80
2017-09-21T10:19:38.515Z,19.70
2017-09-21T10:20:35.777Z,22.80
2017-09-21T10:21:33.103Z,24.20
2017-09-21T10:22:32.421Z,20.20
2017-09-21T10:23:29.673Z,24.90
2017-09-21T10:24:27.133Z,28.30
2017-09-21T10:25:25.202Z,22.10
2017-09-21T10:26:24.582Z,20.70
2017-09-21T10:27:21.802Z,20.80
2017-09-21T10:28:21.165Z,21.50
2017-09-21T10:29:18.394Z,22.80
2017-09-21T10:30:15.766Z,23.80
2017-09-21T10:31:13.015Z,20.00
2017-09-21T10:32:10.294Z,24.30
2017-09-21T10:33:07.542Z,19.90
2017-09-21T10:34:04.806Z,19.30
2017-09-21T10:35:02.055Z,17.30
2017-09-21T10:35:59.331Z,17.00
2017-09-21T10:36:56.614Z,15.70
2017-09-21T10:37:53.873Z,15.90
2017-09-21T10:38:51.216Z,19.10
2017-09-21T10:39:48.578Z,17.00
2017-09-21T10:40:45.858Z,15.40
2017-09-21T10:41:43.137Z,16.10
2017-09-21T10:42:40.438Z,19.60
2017-09-21T10:43:37.945Z,15.90
2017-09-21T10:44:35.318Z,14.70
2017-09-21T10:45:32.638Z,18.30
2017-09-21T10:46:29.930Z,15.10
2017-09-21T10:47:27.989Z,14.10
2017-09-21T10:48:25.235Z,15.50
2017-09-21T10:49:22.618Z,15.90
2017-09-21T10:50:19.929Z,12.90
2017-09-21T10:51:17.190Z,17.30
2017-09-21T10:52:14.438Z,14.80
2017-09-21T10:53:11.702Z,19.00
2017-09-21T10:54:09.657Z,16.60
2017-09-21T10:55:06.953Z,14.70
2017-09-21T10:56:04.222Z,16.20
2017-09-21T10:57:01.486Z,15.20
2017-09-21T10:57:58.719Z,15.50
2017-09-21T10:58:55.984Z,20.50
2017-09-21T10:59:53.437Z,17.90
2017-09-21T11:00:50.772Z,18.70
2017-09-21T11:01:50.100Z,13.60
2017-09-21T11:02:47.383Z,17.40
2017-09-21T11:03:44.658Z,18.30
2017-09-21T11:04:41.971Z,20.00
2017-09-21T11:05:39.222Z,16.00
2017-09-21T11:06:36.486Z,12.30
2017-09-21T11:07:33.726Z,12.50
2017-09-21T11:08:30.989Z,13.80
2017-09-21T11:09:28.237Z,12.40
2017-09-21T11:10:25.520Z,16.40
2017-09-21T11:11:22.795Z,14.20
2017-09-21T11:12:20.074Z,14.70
2017-09-21T11:13:17.345Z,14.90
2017-09-21T11:14:14.625Z,13.50
2017-09-21T11:15:11.889Z,16.60
2017-09-21T11:16:09.218Z,14.40
2017-09-21T11:17:06.482Z,14.50
2017-09-21T11:18:03.804Z,14.60
2017-09-21T11:19:01.046Z,13.90
2017-09-21T11:19:58.306Z,14.80
2017-09-21T11:20:55.788Z,13.60
2017-09-21T11:21:53.071Z,14.30
2017-09-21T11:22:50.332Z,16.30
2017-09-21T11:23:47.597Z,15.00
2017-09-21T11:24:44.845Z,12.30
2017-09-21T11:25:42.227Z,13.60
2017-09-21T11:26:39.509Z,17.50
2017-09-21T11:27:36.769Z,14.70
2017-09-21T11:28:34.014Z,16.10
2017-09-21T11:29:31.284Z,14.70
2017-09-21T11:30:28.550Z,15.60
2017-09-21T11:31:25.839Z,11.40
2017-09-21T11:32:23.091Z,10.90
2017-09-21T11:33:20.410Z,14.40
2017-09-21T11:34:19.766Z,10.00
2017-09-21T11:35:17.033Z,9.30
2017-09-21T11:36:14.380Z,9.60
2017-09-21T11:37:11.647Z,12.60
2017-09-21T11:38:08.949Z,10.90
2017-09-21T11:39:06.174Z,19.30
2017-09-21T11:40:03.431Z,11.40
2017-09-21T11:41:00.663Z,10.20
2017-09-21T11:41:57.931Z,9.90
2017-09-21T11:42:55.170Z,15.40
2017-09-21T11:43:52.469Z,8.10
2017-09-21T11:44:49.728Z,10.00
2017-09-21T11:45:47.178Z,10.80
2017-09-21T11:46:44.447Z,10.30
2017-09-21T11:47:41.723Z,10.80
2017-09-21T11:48:38.987Z,10.70
2017-09-21T11:49:36.237Z,9.90
2017-09-21T11:50:33.476Z,9.50
2017-09-21T11:51:30.754Z,8.50
2017-09-21T11:52:28.094Z,8.50
2017-09-21T11:53:25.365Z,9.30
2017-09-21T11:54:22.787Z,9.90
2017-09-21T11:55:20.085Z,7.40
2017-09-21T11:56:17.328Z,13.90
2017-09-21T11:57:14.695Z,8.50
2017-09-21T11:58:11.957Z,8.90
2017-09-21T11:59:09.321Z,7.20
2017-09-21T12:00:06.566Z,6.80
2017-09-21T12:01:03.966Z,7.80
2017-09-21T12:02:01.281Z,6.90
2017-09-21T12:02:58.585Z,7.50
2017-09-21T12:03:56.073Z,6.50
2017-09-21T12:04:53.326Z,9.60
2017-09-21T12:05:50.583Z,6.80
2017-09-21T12:06:47.868Z,6.40
2017-09-21T12:07:45.125Z,7.80
2017-09-21T12:08:42.415Z,6.00
2017-09-21T12:09:39.679Z,6.70
2017-09-21T12:10:36.945Z,6.80
2017-09-21T12:11:34.206Z,8.90
2017-09-21T12:12:31.494Z,6.00
2017-09-21T12:13:30.825Z,7.90
2017-09-21T12:14:28.115Z,6.40
2017-09-21T12:15:25.381Z,6.80
2017-09-21T12:16:22.621Z,4.90
2017-09-21T12:17:19.949Z,6.30
2017-09-21T12:18:17.199Z,6.80
2017-09-21T12:19:14.474Z,6.30
2017-09-21T12:20:11.821Z,8.10
2017-09-21T12:21:09.082Z,6.20
2017-09-21T12:22:06.326Z,7.10
2017-09-21T12:23:03.667Z,6.70
2017-09-21T12:24:00.922Z,6.40
2017-09-21T12:24:58.204Z,6.10
2017-09-21T12:25:55.465Z,6.70
2017-09-21T12:26:52.734Z,5.70
2017-09-21T12:27:50.020Z,5.90
2017-09-21T12:28:47.291Z,5.90
2017-09-21T12:29:44.519Z,8.10
2017-09-21T12:30:41.795Z,5.90